createdAt,value
2022-11-01T00:04:14.654Z,7.80
2022-11-01T00:09:17.587Z,8.50
2022-11-01T00:14:20.672Z,7.80
2022-11-01T00:19:23.225Z,7.80
2022-11-01T00:24:30.932Z,8.00
2022-11-01T00:29:35.651Z,7.70
2022-11-01T00:34:38.110Z,8.40
2022-11-01T00:39:40.752Z,7.60
2022-11-01T00:44:43.246Z,6.70
2022-11-01T00:49:45.891Z,7.40
2022-11-01T00:54:48.371Z,7.30
2022-11-01T00:59:50.902Z,7.90
2022-11-01T01:04:54.683Z,7.60
2022-11-01T01:09:57.381Z,7.60
2022-11-01T01:15:00.178Z,8.20
2022-11-01T01:20:03.432Z,8.60
2022-11-01T01:25:06.147Z,7.30
2022-11-01T01:30:09.519Z,8.20
2022-11-01T01:35:12.051Z,7.10
2022-11-01T01:40:14.751Z,7.70
2022-11-01T01:45:23.180Z,8.20
2022-11-01T01:50:30.871Z,7.70
2022-11-01T01:55:37.810Z,6.70
2022-11-01T02:00:43.513Z,7.00
2022-11-01T02:10:54.993Z,6.90
2022-11-01T02:15:59.450Z,7.20
2022-11-01T02:21:17.278Z,6.30
2022-11-01T02:26:30.982Z,6.90
2022-11-01T02:31:45.910Z,6.80
2022-11-01T02:36:56.068Z,6.00
2022-11-01T02:42:09.733Z,6.50
2022-11-01T02:47:14.035Z,7.50
2022-11-01T02:52:25.954Z,7.90
2022-11-01T02:57:34.572Z,7.10
2022-11-01T03:02:44.154Z,6.40
2022-11-01T03:07:52.891Z,7.30
2022-11-01T03:13:06.403Z,7.40
2022-11-01T03:18:18.161Z,6.10
2022-11-01T03:23:27.628Z,5.90
2022-11-01T03:28:36.740Z,5.70
2022-11-01T03:33:45.437Z,6.60
2022-11-01T03:39:13.421Z,7.30
2022-11-01T03:44:16.537Z,7.10
2022-11-01T03:49:19.983Z,7.20
2022-11-01T03:54:22.903Z,6.50
2022-11-01T03:59:25.547Z,7.10
2022-11-01T04:04:28.068Z,6.80
2022-11-01T04:09:30.707Z,6.10
2022-11-01T04:14:36.115Z,5.80
2022-11-01T04:19:41.622Z,6.30
2022-11-01T04:24:44.382Z,6.90
2022-11-01T04:29:46.887Z,6.10
2022-11-01T04:34:49.421Z,6.30
2022-11-01T04:39:52.103Z,5.90
2022-11-01T04:44:54.727Z,5.60
2022-11-01T04:49:57.318Z,6.20
2022-11-01T04:55:02.272Z,5.00
2022-11-01T05:00:05.647Z,6.20
2022-11-01T05:05:12.575Z,6.40
2022-11-01T05:10:15.069Z,5.90
2022-11-01T05:15:17.607Z,5.30
2022-11-01T05:20:20.320Z,5.90
2022-11-01T05:25:22.862Z,5.90
2022-11-01T05:30:25.570Z,5.90
2022-11-01T05:35:30.086Z,5.80
2022-11-01T05:40:33.331Z,5.80
2022-11-01T05:45:35.872Z,6.90
2022-11-01T05:50:38.356Z,5.10
2022-11-01T05:55:41.269Z,5.10
2022-11-01T06:00:43.762Z,5.60
2022-11-01T06:05:46.267Z,4.80
2022-11-01T06:10:49.012Z,5.90
2022-11-01T06:15:58.475Z,6.10
2022-11-01T06:21:01.106Z,6.50
2022-11-01T06:26:05.009Z,6.30
2022-11-01T06:31:07.538Z,6.30
2022-11-01T06:36:10.179Z,5.90
2022-11-01T06:41:12.647Z,6.00
2022-11-01T06:46:15.322Z,6.40
2022-11-01T06:51:17.903Z,7.20
2022-11-01T06:56:20.603Z,6.20
2022-11-01T07:01:25.026Z,5.60
2022-11-01T07:06:30.785Z,6.30
2022-11-01T07:11:33.907Z,6.50
2022-11-01T07:16:36.815Z,6.10
2022-11-01T07:21:39.317Z,6.30
2022-11-01T07:26:41.949Z,5.90
2022-11-01T07:31:44.478Z,5.60
2022-11-01T07:36:47.000Z,6.50
2022-11-01T07:41:51.227Z,5.70
2022-11-01T07:46:53.784Z,6.20
2022-11-01T07:52:00.314Z,7.00
2022-11-01T07:57:05.649Z,6.30
2022-11-01T08:02:09.218Z,6.60
2022-11-01T08:07:11.844Z,6.20
2022-11-01T08:12:14.392Z,6.10
2022-11-01T08:17:16.908Z,7.50
2022-11-01T08:22:19.460Z,6.50
2022-11-01T08:27:21.975Z,6.60
2022-11-01T08:32:24.713Z,5.80
2022-11-01T08:37:27.427Z,7.10
2022-11-01T08:42:30.079Z,6.70
2022-11-01T08:47:32.620Z,6.30
2022-11-01T08:52:35.142Z,6.20
2022-11-01T08:57:37.809Z,6.30
2022-11-01T09:02:40.364Z,6.90
2022-11-01T09:07:42.854Z,6.40
2022-11-01T09:12:45.513Z,8.20
2022-11-01T09:17:48.128Z,8.50
2022-11-01T09:22:52.263Z,8.40
2022-11-01T09:27:56.810Z,7.90
2022-11-01T09:32:59.435Z,8.20
2022-11-01T09:38:04.017Z,8.30
2022-11-01T09:43:09.718Z,9.50
2022-11-01T09:48:15.234Z,9.80
2022-11-01T09:53:22.109Z,9.50
2022-11-01T09:59:50.645Z,9.30
2022-11-01T10:05:00.738Z,8.00
2022-11-01T10:10:14.340Z,8.90
2022-11-01T10:15:18.815Z,8.20
2022-11-01T10:20:26.466Z,9.10
2022-11-01T10:25:33.130Z,7.50
2022-11-01T10:30:43.069Z,8.70
2022-11-01T10:35:52.442Z,8.50
2022-11-01T10:41:04.254Z,8.30
2022-11-01T10:46:13.153Z,8.40
2022-11-01T10:51:26.716Z,8.00
2022-11-01T10:56:41.559Z,8.50
2022-11-01T11:01:47.756Z,8.50
2022-11-01T11:06:51.793Z,9.20
2022-11-01T11:11:59.992Z,8.60
2022-11-01T11:17:04.257Z,9.40
2022-11-01T11:22:08.865Z,10.30
2022-11-01T11:34:35.976Z,8.50
2022-11-01T11:39:39.434Z,8.60
2022-11-01T11:44:45.001Z,9.50
2022-11-01T11:49:50.020Z,9.50
2022-11-01T11:54:55.089Z,8.90
2022-11-01T12:00:01.134Z,8.00
2022-11-01T12:05:08.425Z,8.90
2022-11-01T12:10:30.706Z,11.10
2022-11-01T12:15:41.143Z,14.20
2022-11-01T12:20:53.200Z,11.70
2022-11-01T12:25:59.652Z,9.50
2022-11-01T12:31:11.713Z,8.90
2022-11-01T12:36:15.352Z,9.90
2022-11-01T12:41:24.202Z,8.90
2022-11-01T12:46:32.668Z,9.60
2022-11-01T12:51:40.506Z,9.30
2022-11-01T12:56:43.086Z,9.90
2022-11-01T13:14:06.699Z,9.60
2022-11-01T13:19:13.765Z,10.70
2022-11-01T13:24:27.020Z,11.40
2022-11-01T13:29:39.548Z,9.60
2022-11-01T13:34:55.370Z,10.10
2022-11-01T13:45:18.462Z,10.40
2022-11-01T13:50:35.487Z,8.60
2022-11-01T13:55:47.393Z,8.30
2022-11-01T14:00:54.230Z,8.80
2022-11-01T14:06:20.094Z,7.50
2022-11-01T14:11:28.617Z,10.00
2022-11-01T14:16:31.237Z,9.30
2022-11-01T14:21:39.608Z,10.50
2022-11-01T14:26:48.221Z,10.50
2022-11-01T14:31:52.653Z,9.20
2022-11-01T14:36:59.241Z,9.70
2022-11-01T14:42:05.292Z,10.80
2022-11-01T14:47:25.808Z,10.90
2022-11-01T14:52:35.783Z,11.00
2022-11-01T14:57:38.432Z,11.20
2022-11-01T15:02:41.423Z,13.00
2022-11-01T15:07:50.952Z,13.20
2022-11-01T15:12:58.391Z,12.00
2022-11-01T15:18:06.590Z,11.70
2022-11-01T15:23:28.316Z,11.00
2022-11-01T15:28:37.072Z,11.80
2022-11-01T15:34:05.194Z,13.80
2022-11-01T15:39:13.559Z,10.00
2022-11-01T15:44:20.482Z,12.80
2022-11-01T15:49:29.375Z,11.80
2022-11-01T16:01:39.493Z,11.30
2022-11-01T16:06:50.096Z,12.50
2022-11-01T16:11:57.069Z,12.20
2022-11-01T16:17:03.781Z,14.70
2022-11-01T16:22:30.092Z,12.40
2022-11-01T16:27:35.787Z,11.10
2022-11-01T16:32:38.707Z,12.30
2022-11-01T16:37:43.791Z,14.20
2022-11-01T16:42:48.545Z,12.10
2022-11-01T16:47:57.100Z,12.80
2022-11-01T16:53:00.805Z,14.00
2022-11-01T16:58:03.555Z,13.60
2022-11-01T17:03:06.432Z,15.00
2022-11-01T17:08:11.950Z,14.50
2022-11-01T17:20:26.399Z,14.00
2022-11-01T17:25:30.593Z,13.10
2022-11-01T17:30:33.084Z,15.10
2022-11-01T17:35:38.443Z,14.40
2022-11-01T17:40:45.246Z,15.30
2022-11-01T17:45:49.270Z,14.60
2022-11-01T17:50:52.178Z,15.70
2022-11-01T17:55:58.013Z,17.70
2022-11-01T18:01:00.631Z,15.90
2022-11-01T18:06:03.439Z,14.60
2022-11-01T18:11:09.211Z,17.20
2022-11-01T18:21:24.916Z,15.70
2022-11-01T18:26:29.796Z,15.80
2022-11-01T18:31:38.635Z,17.70
2022-11-01T18:36:47.705Z,18.20
2022-11-01T18:41:50.826Z,14.60
2022-11-01T18:47:18.831Z,15.20
2022-11-01T18:52:24.576Z,14.10
2022-11-01T18:57:28.794Z,15.10
2022-11-01T19:02:32.857Z,14.70
2022-11-01T19:08:04.808Z,13.60
2022-11-01T19:12:58.006Z,16.20
2022-11-01T19:18:03.471Z,15.60
2022-11-01T19:28:26.064Z,14.60
2022-11-01T19:33:31.843Z,14.50
2022-11-01T19:38:34.852Z,14.30
2022-11-01T19:43:37.378Z,15.20
2022-11-01T19:48:40.034Z,15.10
2022-11-01T19:53:42.799Z,16.40
2022-11-01T19:58:52.544Z,14.20
2022-11-01T20:03:59.925Z,15.00
2022-11-01T20:09:05.456Z,15.30
2022-11-01T20:14:07.972Z,15.80
2022-11-01T20:19:13.221Z,15.80
2022-11-01T20:24:19.007Z,17.20
2022-11-01T20:29:21.740Z,17.80
2022-11-01T20:34:25.588Z,17.00
2022-11-01T20:39:28.102Z,18.10
2022-11-01T20:44:30.733Z,17.30
2022-11-01T20:49:33.345Z,18.70
2022-11-01T20:54:35.880Z,24.70
2022-11-01T20:59:38.359Z,22.60
2022-11-01T21:04:40.916Z,19.00
2022-11-01T21:09:46.314Z,18.40
2022-11-01T21:14:49.180Z,19.20
2022-11-01T21:19:54.513Z,17.30
2022-11-01T21:24:58.355Z,18.50
2022-11-01T21:30:15.056Z,18.50
2022-11-01T21:35:19.504Z,18.10
2022-11-01T21:40:27.716Z,17.80
2022-11-01T21:45:32.176Z,16.60
2022-11-01T21:50:34.671Z,20.20
2022-11-01T21:55:37.174Z,17.70
2022-11-01T22:00:39.703Z,18.30
2022-11-01T22:05:42.242Z,17.00
2022-11-01T22:10:44.769Z,20.20
2022-11-01T22:15:47.260Z,20.20
2022-11-01T22:20:49.721Z,18.10
2022-11-01T22:25:52.260Z,19.70
2022-11-01T22:30:55.075Z,22.70
2022-11-01T22:35:59.034Z,19.80
2022-11-01T22:41:11.533Z,20.90
2022-11-01T22:46:21.697Z,19.10
2022-11-01T22:51:35.734Z,21.70
2022-11-01T22:56:38.236Z,22.70
2022-11-01T23:01:40.929Z,21.90
2022-11-01T23:06:43.469Z,22.90
2022-11-01T23:11:57.560Z,24.70
2022-11-01T23:17:00.071Z,22.90
2022-11-01T23:22:02.568Z,25.90
2022-11-01T23:27:05.171Z,25.80
2022-11-01T23:32:07.927Z,25.40
2022-11-01T23:37:16.419Z,23.10
2022-11-01T23:42:21.553Z,25.20
2022-11-01T23:47:27.960Z,25.10
2022-11-01T23:52:35.421Z,23.50
2022-11-01T23:57:40.317Z,27.20
